Pagina principale
METAR-TAF:

METAR-TAF

Aeroporti :

Aeroporto Internazionale José Martí

L'Avana, Cuba

latitudine: 22-59N, longitudine: 082-24W, altezza: 59 m

Osservazione

Il bollettino è stato emesso 39 minuti fa, alle 02:55 UTC
Vento 7 kt da est
Temperature 26°C
Umidità 84%
Pressione 1019 hPa
Visibilità: 9000 m
Poco nuvoloso ad un'altezza di 3000 ft

METAR: MUHA 190255Z 08007KT 9000 FEW030 26/23 Q1019

Ora: 23:34 (03:34 UTC)

Previsione

Il bollettino è stato emesso 4 ore e 34 minuti fa, alle 23:00 UTC
Previsione valida dal 19 alle 00 UTC al 19 alle 24 UTC
Vento 8 kt da est/nord-est
Visibilità: 9000 m
Poco nuvoloso ad un'altezza di 3000 ft
Evoluzione graduale
dal 19 alle 03 UTC al 19 alle 05 UTC
Vento 3 kt da direzioni variabili
Evoluzione graduale
dal 19 alle 14 UTC al 19 alle 16 UTC
Vento 13 kt da est

TAF: MUHA 182300Z 1900/1924 07008KT 9000 FEW030 BECMG 1903/1905 VRB03KT BECMG 1914/1916 09013KT

Osservazioni e previsioni meteorologiche di più di 4000 aeroporti (messaggi METAR e TAF).

Le stazioni disponibili sono rappresentate dai dischi gialli e rossi sulla carta.

Puntare il mouse per vedere il nome della stazione.

Clicca sopra per visualizzare le osservazioni e previsioni meteorologiche.

Per cambiare la mappa : fare clic sui pulsanti verdi con una croce nera per ingrandire, il pulsante verde con un trattino per diminuire, o sulla freccia verde per le mappe adiacenti.


METAR-TAF: